CheckWX is a tool to help pilots better visualize weather data.  It is not intended as a substitute for an official pre-flight weather briefing.

06:09:14 UTC

8A0 METAR
Albertville Regional-Thomas J Brumlik Field Airport
Albertville, Alabama, USA
Current

34 mins ago

K8A0 230535Z AUTO 00000KT 10SM SCT110 14/10 A3014 RMK AO2
Observed
Apr-23 @ 05:35 UTC
Visibility
10 SM
Flight Rules
VFR
Cloud Levels
  • Scattered at 11,000' AGL
Temperature
14°C / 57°F
Dewpoint
10°C / 50°F
Humidity
77%
Altimeter
30.14" Hg
Pressure
1020.62 hPa
Previous

54 mins ago

K8A0 230515Z AUTO 00000KT 10SM CLR 14/10 A3015 RMK AO2
Observed
Apr-23 @ 05:15 UTC
Visibility
10 SM
Flight Rules
VFR
Cloud Levels
  • Clear skies
Temperature
14°C / 57°F
Dewpoint
10°C / 50°F
Humidity
77%
Altimeter
30.15" Hg
Pressure
1021.02 hPa
Previous

1 hour ago

K8A0 230455Z AUTO 00000KT 10SM CLR 15/10 A3015 RMK AO2
Observed
Apr-23 @ 04:55 UTC
Visibility
10 SM
Flight Rules
VFR
Cloud Levels
  • Clear skies
Temperature
15°C / 59°F
Dewpoint
10°C / 50°F
Humidity
72%
Altimeter
30.15" Hg
Pressure
1021.02 hPa